RPLC/CRK METAR and TAF weather

Enter ICAO airport designator
Station Type Date Time Source
RPLC METAR 2020/05/30 04:00 UTC NOAA

RPLC 300400Z 18010KT 9000 SCT020 BKN300 34/24 Q1014 NOSIG RMK A2994


Station Type Date Time Source
RPLC Decoded METAR 2020/05/30 04:00 UTC NOAA

Clarkfield Pampanga International Airport, Philippines (RPLC) 15-11N 120-33E
May 30, 2020 - 12:00 AM EDT / 2020.05.30 0400 UTC
Wind: from the S (180 degrees) at 12 MPH (10 KT):0
Visibility: 5 mile(s):0
Sky conditions: mostly cloudy
Temperature: 93 F (34 C)
Heat index: 104.5 F (40.3 C):1
Dew Point: 75 F (24 C)
Relative Humidity: 56%
Pressure (altimeter): 29.94 in. Hg (1014 hPa)
ob: RPLC 300400Z 18010KT 9000 SCT020 BKN300 34/24 Q1014 NOSIG RMK A2994
cycle: 4

Station Type Date Time Source
RPLC TAF 2020/05/29 18:03 UTC NOAA

TAF RPLC 291700Z 2918/3024 34005KT 9999 FEW020 BKN300 TX35/3006Z TN25/2922Z
TEMPO 2918/2924 36004KT

Example: see airport list